createdAt,value
2022-11-19T00:00:52.110Z,7.41
2022-11-19T00:01:52.094Z,7.44
2022-11-19T00:02:52.028Z,7.44
2022-11-19T00:03:53.192Z,7.34
2022-11-19T00:04:51.948Z,7.33
2022-11-19T00:05:51.923Z,7.33
2022-11-19T00:06:51.850Z,7.41
2022-11-19T00:07:51.812Z,7.37
2022-11-19T00:08:51.764Z,7.34
2022-11-19T00:09:51.725Z,7.27
2022-11-19T00:10:51.694Z,7.30
2022-11-19T00:11:51.641Z,7.32
2022-11-19T00:12:51.595Z,7.34
2022-11-19T00:13:51.553Z,7.33
2022-11-19T00:14:51.508Z,7.27
2022-11-19T00:15:51.475Z,7.41
2022-11-19T00:16:51.443Z,7.32
2022-11-19T00:17:51.388Z,7.34
2022-11-19T00:18:51.338Z,7.36
2022-11-19T00:19:51.297Z,7.21
2022-11-19T00:20:51.253Z,7.24
2022-11-19T00:21:51.213Z,7.26
2022-11-19T00:22:51.183Z,7.29
2022-11-19T00:23:51.147Z,7.30
2022-11-19T00:24:51.089Z,7.16
2022-11-19T00:25:51.047Z,7.27
2022-11-19T00:26:50.998Z,7.41
2022-11-19T00:27:50.963Z,7.36
2022-11-19T00:28:50.920Z,7.29
2022-11-19T00:29:50.874Z,7.30
2022-11-19T00:30:50.833Z,7.27
2022-11-19T00:31:50.788Z,7.27
2022-11-19T00:32:50.743Z,7.33
2022-11-19T00:33:50.870Z,7.34
2022-11-19T00:34:50.674Z,7.23
2022-11-19T00:35:50.620Z,7.39
2022-11-19T00:36:50.599Z,7.16
2022-11-19T00:37:50.536Z,7.24
2022-11-19T00:38:50.488Z,7.23
2022-11-19T00:39:50.447Z,7.16
2022-11-19T00:40:50.400Z,7.33
2022-11-19T00:41:50.356Z,7.19
2022-11-19T00:42:50.328Z,7.12
2022-11-19T00:43:50.322Z,7.23
2022-11-19T00:44:50.229Z,7.29
2022-11-19T00:45:50.214Z,7.24
2022-11-19T00:46:50.141Z,7.30
2022-11-19T00:47:50.123Z,7.27
2022-11-19T00:48:50.098Z,7.16
2022-11-19T00:49:50.019Z,7.18
2022-11-19T00:50:49.983Z,7.15
2022-11-19T00:51:49.938Z,7.09
2022-11-19T00:52:49.886Z,7.05
2022-11-19T00:53:49.867Z,7.01
2022-11-19T00:54:49.804Z,6.91
2022-11-19T00:55:49.767Z,6.86
2022-11-19T00:56:49.711Z,6.81
2022-11-19T00:57:49.674Z,6.78
2022-11-19T00:58:49.631Z,6.68
2022-11-19T00:59:49.612Z,6.58
2022-11-19T01:00:49.610Z,6.64
2022-11-19T01:01:49.501Z,6.54
2022-11-19T01:02:49.461Z,6.58
2022-11-19T01:03:58.027Z,6.60
2022-11-19T01:04:49.378Z,6.61
2022-11-19T01:05:49.343Z,6.55
2022-11-19T01:06:49.286Z,6.50
2022-11-19T01:07:49.245Z,6.48
2022-11-19T01:08:49.333Z,6.36
2022-11-19T01:09:49.241Z,6.50
2022-11-19T01:10:49.202Z,6.38
2022-11-19T01:11:49.111Z,6.40
2022-11-19T01:12:49.049Z,6.36
2022-11-19T01:13:49.038Z,6.32
2022-11-19T01:14:49.531Z,6.38
2022-11-19T01:15:48.926Z,6.30
2022-11-19T01:16:48.950Z,6.13
2022-11-19T01:17:48.849Z,6.27
2022-11-19T01:18:48.783Z,6.16
2022-11-19T01:19:48.849Z,6.16
2022-11-19T01:20:48.725Z,6.20
2022-11-19T01:21:48.653Z,6.08
2022-11-19T01:22:48.600Z,6.06
2022-11-19T01:23:48.590Z,6.06
2022-11-19T01:24:48.514Z,5.90
2022-11-19T01:25:48.484Z,5.90
2022-11-19T01:26:48.438Z,5.95
2022-11-19T01:27:48.389Z,5.96
2022-11-19T01:28:48.383Z,5.98
2022-11-19T01:29:48.352Z,5.90
2022-11-19T01:30:48.268Z,5.88
2022-11-19T01:31:48.227Z,5.84
2022-11-19T01:32:48.167Z,5.75
2022-11-19T01:33:48.196Z,5.93
2022-11-19T01:34:48.124Z,5.88
2022-11-19T01:35:48.153Z,5.85
2022-11-19T01:36:47.999Z,5.95
2022-11-19T01:37:47.967Z,5.83
2022-11-19T01:38:47.899Z,5.88
2022-11-19T01:39:48.020Z,5.84
2022-11-19T01:40:47.822Z,5.85
2022-11-19T01:41:47.793Z,5.77
2022-11-19T01:42:47.727Z,5.77
2022-11-19T01:43:47.690Z,5.77
2022-11-19T01:44:47.633Z,5.65
2022-11-19T01:45:47.623Z,5.66
2022-11-19T01:46:47.570Z,5.65
2022-11-19T01:47:47.561Z,5.60
2022-11-19T01:48:47.486Z,5.65
2022-11-19T01:49:47.441Z,5.55
2022-11-19T01:50:47.442Z,5.60
2022-11-19T01:51:48.054Z,5.65
2022-11-19T01:52:47.288Z,5.52
2022-11-19T01:53:47.319Z,5.55
2022-11-19T01:54:47.208Z,5.55
2022-11-19T01:55:47.160Z,5.63
2022-11-19T01:56:47.116Z,5.62
2022-11-19T01:57:47.088Z,5.47
2022-11-19T01:58:47.022Z,5.45
2022-11-19T01:59:46.998Z,5.45
2022-11-19T02:00:46.947Z,5.41
2022-11-19T02:01:47.551Z,5.44
2022-11-19T02:02:46.843Z,5.47
2022-11-19T02:03:46.819Z,5.41
2022-11-19T02:04:46.757Z,5.35
2022-11-19T02:05:46.732Z,5.42
2022-11-19T02:06:46.694Z,5.26
2022-11-19T02:07:46.638Z,5.45
2022-11-19T02:08:46.584Z,5.48
2022-11-19T02:09:46.595Z,5.40
2022-11-19T02:10:46.503Z,5.38
2022-11-19T02:11:46.495Z,5.38
2022-11-19T02:12:46.407Z,5.33
2022-11-19T02:13:46.383Z,5.30
2022-11-19T02:14:50.418Z,5.26
2022-11-19T02:15:46.296Z,5.29
2022-11-19T02:16:46.226Z,5.27
2022-11-19T02:17:46.196Z,5.23
2022-11-19T02:18:46.162Z,5.24
2022-11-19T02:19:46.109Z,5.17
2022-11-19T02:20:46.066Z,5.27
2022-11-19T02:21:46.013Z,5.22
2022-11-19T02:22:45.963Z,5.09
2022-11-19T02:23:46.527Z,5.17
2022-11-19T02:24:45.908Z,5.09
2022-11-19T02:25:45.861Z,5.17
2022-11-19T02:26:45.793Z,5.02
2022-11-19T02:27:45.784Z,5.02
2022-11-19T02:28:45.713Z,5.05
2022-11-19T02:29:45.665Z,5.08
2022-11-19T02:30:45.643Z,5.06
2022-11-19T02:31:45.579Z,5.05
2022-11-19T02:32:45.555Z,5.05
2022-11-19T02:33:45.500Z,5.15
2022-11-19T02:34:45.458Z,5.14
2022-11-19T02:35:45.413Z,5.14
2022-11-19T02:36:45.379Z,5.09
2022-11-19T02:37:45.334Z,5.12
2022-11-19T02:38:45.279Z,5.05
2022-11-19T02:39:45.254Z,5.05
2022-11-19T02:40:45.194Z,4.96
2022-11-19T02:41:45.141Z,4.91
2022-11-19T02:42:45.102Z,4.93
2022-11-19T02:43:45.051Z,4.93
2022-11-19T02:44:45.001Z,4.88
2022-11-19T02:45:44.966Z,4.96
2022-11-19T02:46:44.905Z,4.79
2022-11-19T02:47:44.890Z,4.79
2022-11-19T02:48:44.856Z,4.86
2022-11-19T02:49:44.787Z,4.75
2022-11-19T02:50:44.765Z,4.79
2022-11-19T02:51:44.715Z,4.74
2022-11-19T02:52:44.653Z,4.79
2022-11-19T02:53:44.611Z,4.88
2022-11-19T02:54:44.566Z,4.80
2022-11-19T02:55:44.523Z,4.74
2022-11-19T02:56:44.478Z,4.72
2022-11-19T02:57:44.449Z,4.71
2022-11-19T02:58:44.382Z,4.74
2022-11-19T02:59:44.346Z,4.57
2022-11-19T03:00:44.299Z,4.77
2022-11-19T03:01:44.303Z,4.74
2022-11-19T03:02:44.200Z,4.72
2022-11-19T03:03:44.186Z,4.75
2022-11-19T03:04:44.325Z,4.64
2022-11-19T03:05:44.071Z,4.72
2022-11-19T03:06:44.051Z,4.59
2022-11-19T03:07:43.981Z,4.59
2022-11-19T03:08:43.974Z,4.64
2022-11-19T03:09:43.907Z,4.56
2022-11-19T03:10:43.856Z,4.56
2022-11-19T03:11:43.814Z,4.69
2022-11-19T03:12:43.772Z,4.67
2022-11-19T03:13:43.723Z,4.54
2022-11-19T03:14:43.710Z,4.59
2022-11-19T03:15:43.632Z,4.56
2022-11-19T03:16:43.590Z,4.62
2022-11-19T03:17:43.542Z,4.59
2022-11-19T03:18:43.540Z,4.62
2022-11-19T03:19:43.444Z,4.56
2022-11-19T03:20:43.413Z,4.53
2022-11-19T03:21:43.419Z,4.61
2022-11-19T03:22:43.328Z,4.51
2022-11-19T03:23:43.270Z,4.47
2022-11-19T03:24:43.221Z,4.44
2022-11-19T03:25:43.179Z,4.53
2022-11-19T03:26:43.153Z,4.50
2022-11-19T03:27:43.097Z,4.47
2022-11-19T03:28:43.060Z,4.35
2022-11-19T03:29:43.029Z,4.42
2022-11-19T03:30:42.971Z,4.46
2022-11-19T03:31:42.921Z,4.42
2022-11-19T03:32:42.873Z,4.34
2022-11-19T03:33:42.840Z,4.29
2022-11-19T03:34:42.791Z,4.32
2022-11-19T03:35:42.744Z,4.39
2022-11-19T03:36:42.694Z,4.42
2022-11-19T03:37:42.649Z,4.39
2022-11-19T03:38:42.612Z,4.31
2022-11-19T03:39:42.571Z,4.29
2022-11-19T03:40:42.513Z,4.34
2022-11-19T03:41:42.488Z,4.21
2022-11-19T03:42:42.433Z,4.26
2022-11-19T03:43:42.402Z,4.34
2022-11-19T03:44:42.366Z,4.26
2022-11-19T03:45:42.297Z,4.34
2022-11-19T03:46:42.238Z,4.25
2022-11-19T03:47:42.202Z,4.38
2022-11-19T03:48:42.148Z,4.28
2022-11-19T03:49:42.116Z,4.28
2022-11-19T03:50:42.064Z,4.31
2022-11-19T03:51:42.040Z,4.20
2022-11-19T03:52:41.975Z,4.25
2022-11-19T03:53:41.951Z,4.26
2022-11-19T03:54:41.892Z,4.20
2022-11-19T03:55:41.848Z,4.20
2022-11-19T03:56:41.806Z,4.21
2022-11-19T03:57:41.773Z,4.29
2022-11-19T03:58:41.710Z,4.26
2022-11-19T03:59:41.673Z,4.18
2022-11-19T04:00:41.619Z,4.26
2022-11-19T04:01:41.639Z,4.28
2022-11-19T04:02:41.532Z,4.28
2022-11-19T04:03:41.506Z,4.26
2022-11-19T04:04:41.436Z,4.21
2022-11-19T04:05:41.405Z,4.20
2022-11-19T04:06:41.350Z,4.16
2022-11-19T04:07:41.382Z,4.21
2022-11-19T04:08:41.261Z,4.28
2022-11-19T04:09:41.241Z,4.31
2022-11-19T04:10:41.174Z,4.36
2022-11-19T04:11:41.138Z,4.26
2022-11-19T04:12:41.083Z,4.25
2022-11-19T04:13:41.037Z,4.31
2022-11-19T04:14:41.008Z,4.28
2022-11-19T04:15:40.946Z,4.25
2022-11-19T04:16:40.915Z,4.25
2022-11-19T04:17:40.858Z,4.31
2022-11-19T04:18:40.815Z,4.28
2022-11-19T04:19:40.771Z,4.28
2022-11-19T04:20:40.739Z,4.25
2022-11-19T04:21:40.681Z,4.26
2022-11-19T04:22:40.648Z,4.35
2022-11-19T04:23:40.592Z,4.26
2022-11-19T04:24:40.549Z,4.13
2022-11-19T04:25:40.503Z,4.08
2022-11-19T04:26:40.467Z,4.17
2022-11-19T04:27:40.414Z,4.11
2022-11-19T04:28:40.389Z,4.08
2022-11-19T04:29:40.324Z,4.10
2022-11-19T04:30:40.287Z,4.00
2022-11-19T04:31:40.237Z,4.14
2022-11-19T04:32:40.199Z,4.08
2022-11-19T04:33:40.148Z,4.02
2022-11-19T04:34:40.119Z,4.06
2022-11-19T04:35:40.058Z,4.08
2022-11-19T04:36:40.033Z,4.04
2022-11-19T04:37:39.976Z,4.06
2022-11-19T04:38:39.928Z,3.96
2022-11-19T04:39:39.908Z,4.00
2022-11-19T04:40:39.838Z,3.89
2022-11-19T04:41:39.791Z,3.99
2022-11-19T04:42:39.751Z,4.06
2022-11-19T04:43:39.711Z,4.04
2022-11-19T04:44:39.663Z,3.90
2022-11-19T04:45:39.628Z,4.02
2022-11-19T04:46:39.576Z,4.00
2022-11-19T04:47:39.525Z,3.92
2022-11-19T04:48:39.493Z,3.96
2022-11-19T04:49:39.438Z,3.96
2022-11-19T04:50:39.394Z,4.00
2022-11-19T04:51:39.362Z,3.99
2022-11-19T04:52:41.081Z,3.92
2022-11-19T04:53:39.258Z,3.95
2022-11-19T04:54:39.217Z,3.95
2022-11-19T04:55:39.169Z,3.96
2022-11-19T04:56:39.127Z,4.00
2022-11-19T04:57:39.089Z,3.96
2022-11-19T04:58:39.033Z,4.04
2022-11-19T04:59:38.990Z,4.10
2022-11-19T05:00:38.943Z,3.93
2022-11-19T05:01:38.929Z,3.98
2022-11-19T05:02:38.885Z,4.02
2022-11-19T05:03:38.811Z,4.00
2022-11-19T05:04:38.774Z,3.99
2022-11-19T05:05:38.723Z,4.07
2022-11-19T05:06:38.679Z,3.99
2022-11-19T05:07:38.671Z,3.95
2022-11-19T05:08:38.600Z,3.98
2022-11-19T05:09:38.557Z,4.08
2022-11-19T05:10:38.502Z,3.93
2022-11-19T05:11:38.458Z,3.99
2022-11-19T05:12:38.414Z,3.98
2022-11-19T05:13:38.369Z,3.96
2022-11-19T05:14:38.330Z,4.02
2022-11-19T05:15:38.290Z,3.99
2022-11-19T05:16:38.240Z,4.02
2022-11-19T05:17:38.188Z,3.98
2022-11-19T05:18:38.171Z,3.99
2022-11-19T05:19:38.111Z,3.99
2022-11-19T05:20:38.056Z,4.04
2022-11-19T05:21:38.012Z,3.99
2022-11-19T05:22:37.969Z,4.02
2022-11-19T05:23:37.925Z,3.99
2022-11-19T05:24:37.879Z,4.00
2022-11-19T05:25:37.843Z,4.07
2022-11-19T05:26:37.802Z,4.06
2022-11-19T05:27:37.742Z,4.02
2022-11-19T05:28:39.477Z,3.99
2022-11-19T05:29:37.680Z,3.96
2022-11-19T05:30:37.612Z,4.14
2022-11-19T05:31:37.570Z,4.04
2022-11-19T05:32:37.526Z,4.00
2022-11-19T05:33:37.476Z,3.96
2022-11-19T05:34:37.437Z,4.07
2022-11-19T05:35:37.403Z,4.10
2022-11-19T05:36:37.343Z,4.08
2022-11-19T05:37:37.300Z,3.99
2022-11-19T05:38:37.270Z,4.00
2022-11-19T05:39:37.210Z,4.17
2022-11-19T05:40:37.170Z,4.10
2022-11-19T05:41:37.120Z,4.08
2022-11-19T05:42:37.077Z,4.04
2022-11-19T05:43:37.033Z,3.96
2022-11-19T05:44:37.011Z,4.11
2022-11-19T05:45:36.944Z,4.10
2022-11-19T05:46:36.898Z,4.16
2022-11-19T05:47:36.856Z,4.14
2022-11-19T05:48:36.806Z,4.07
2022-11-19T05:49:36.761Z,4.14
2022-11-19T05:50:36.735Z,4.10
2022-11-19T05:51:36.679Z,4.13
2022-11-19T05:52:36.649Z,4.02
2022-11-19T05:53:36.585Z,4.13
2022-11-19T05:54:36.543Z,4.16
2022-11-19T05:55:36.520Z,4.14
2022-11-19T05:56:36.465Z,4.06
2022-11-19T05:57:36.407Z,4.17
2022-11-19T05:58:36.366Z,4.11
2022-11-19T05:59:40.850Z,4.00
2022-11-19T06:00:36.274Z,4.16
2022-11-19T06:01:36.243Z,4.08
2022-11-19T06:02:36.233Z,4.16
2022-11-19T06:03:36.143Z,4.08
2022-11-19T06:04:36.112Z,4.20
2022-11-19T06:05:40.231Z,4.17
2022-11-19T06:06:36.008Z,4.13
2022-11-19T06:07:36.016Z,4.11
2022-11-19T06:08:35.922Z,4.13
2022-11-19T06:09:35.870Z,4.10
2022-11-19T06:10:35.837Z,4.20
2022-11-19T06:11:35.783Z,4.11
2022-11-19T06:12:35.750Z,4.06
2022-11-19T06:13:35.705Z,4.11
2022-11-19T06:14:35.652Z,4.11
2022-11-19T06:15:35.606Z,4.10
2022-11-19T06:16:35.562Z,4.14
2022-11-19T06:17:35.515Z,4.11
2022-11-19T06:18:35.474Z,4.14
2022-11-19T06:19:35.441Z,4.00
2022-11-19T06:20:35.385Z,4.13
2022-11-19T06:21:35.336Z,4.10
2022-11-19T06:22:35.292Z,4.14
2022-11-19T06:23:35.250Z,4.13
2022-11-19T06:24:35.221Z,4.10
2022-11-19T06:25:35.162Z,4.08
2022-11-19T06:26:35.153Z,4.14
2022-11-19T06:27:35.076Z,4.08
2022-11-19T06:28:35.027Z,4.17
2022-11-19T06:29:34.998Z,4.10
2022-11-19T06:30:34.939Z,4.07
2022-11-19T06:31:34.907Z,4.21
2022-11-19T06:32:34.854Z,4.04
2022-11-19T06:33:34.805Z,4.10
2022-11-19T06:34:34.765Z,4.16
2022-11-19T06:35:34.737Z,4.00
2022-11-19T06:36:40.224Z,3.96
2022-11-19T06:37:34.644Z,4.02
2022-11-19T06:38:34.636Z,4.11
2022-11-19T06:39:34.538Z,3.92
2022-11-19T06:40:34.492Z,4.00
2022-11-19T06:41:34.451Z,4.04
2022-11-19T06:42:34.405Z,3.99
2022-11-19T06:43:34.375Z,4.00
2022-11-19T06:44:34.316Z,4.08
2022-11-19T06:45:34.272Z,3.98
2022-11-19T06:46:34.254Z,4.02
2022-11-19T06:47:34.179Z,3.96
2022-11-19T06:48:34.149Z,3.96
2022-11-19T06:49:34.095Z,4.13
2022-11-19T06:50:34.050Z,3.96
2022-11-19T06:51:34.010Z,3.99
2022-11-19T06:52:33.960Z,3.93
2022-11-19T06:53:33.916Z,3.90
2022-11-19T06:54:35.786Z,3.92
2022-11-19T06:55:33.824Z,3.96
2022-11-19T06:56:33.791Z,3.95
2022-11-19T06:57:33.748Z,3.92
2022-11-19T06:58:33.693Z,3.82
2022-11-19T06:59:33.647Z,3.89
2022-11-19T07:00:33.608Z,3.88
2022-11-19T07:01:33.618Z,3.90
2022-11-19T07:02:33.514Z,3.93
2022-11-19T07:03:33.467Z,3.88
2022-11-19T07:04:42.626Z,3.74
2022-11-19T07:05:33.382Z,3.72
2022-11-19T07:06:33.336Z,3.74
2022-11-19T07:07:33.347Z,3.78
2022-11-19T07:08:33.251Z,3.84
2022-11-19T07:09:33.199Z,3.81
2022-11-19T07:10:33.160Z,3.84
2022-11-19T07:11:33.110Z,3.77
2022-11-19T07:12:33.067Z,3.81
2022-11-19T07:13:33.038Z,3.75
2022-11-19T07:14:32.978Z,3.75
2022-11-19T07:15:32.947Z,3.81
2022-11-19T07:16:32.890Z,3.78
2022-11-19T07:17:32.844Z,3.75
2022-11-19T07:18:32.799Z,3.72
2022-11-19T07:19:32.762Z,3.81
2022-11-19T07:20:32.709Z,3.72
2022-11-19T07:21:32.668Z,3.77
2022-11-19T07:22:32.620Z,3.77
2022-11-19T07:23:32.574Z,3.86
2022-11-19T07:24:32.540Z,3.82
2022-11-19T07:25:32.485Z,3.82
2022-11-19T07:26:32.510Z,3.82
2022-11-19T07:27:32.394Z,3.89
2022-11-19T07:28:32.358Z,3.89
2022-11-19T07:29:32.319Z,3.89
2022-11-19T07:30:32.265Z,3.75
2022-11-19T07:31:32.215Z,3.74
2022-11-19T07:32:32.174Z,3.75
2022-11-19T07:33:32.126Z,3.82
2022-11-19T07:34:32.103Z,3.77
2022-11-19T07:35:32.038Z,3.63
2022-11-19T07:36:31.996Z,3.78
2022-11-19T07:37:31.949Z,3.71
2022-11-19T07:38:36.753Z,3.84
2022-11-19T07:39:31.875Z,3.84
2022-11-19T07:40:31.817Z,3.78
2022-11-19T07:41:31.771Z,3.84
2022-11-19T07:42:31.726Z,3.72
2022-11-19T07:43:31.684Z,3.84
2022-11-19T07:44:31.636Z,3.96
2022-11-19T07:45:31.602Z,3.75
2022-11-19T07:46:31.561Z,3.78
2022-11-19T07:47:31.505Z,3.71
2022-11-19T07:48:31.461Z,3.81
2022-11-19T07:49:31.413Z,3.89
2022-11-19T07:50:31.372Z,3.84
2022-11-19T07:51:31.324Z,3.82
2022-11-19T07:52:31.291Z,3.81
2022-11-19T07:53:31.243Z,3.81
2022-11-19T07:54:31.196Z,3.93
2022-11-19T07:55:31.147Z,3.81
2022-11-19T07:56:31.102Z,3.82
2022-11-19T07:57:31.071Z,3.74
2022-11-19T07:58:31.014Z,3.74
2022-11-19T07:59:30.970Z,3.90
2022-11-19T08:00:30.926Z,3.86
2022-11-19T08:01:30.956Z,3.84
2022-11-19T08:02:30.848Z,3.84
2022-11-19T08:03:30.789Z,3.89
2022-11-19T08:04:30.747Z,3.86
2022-11-19T08:05:30.699Z,3.86
2022-11-19T08:06:30.660Z,3.86
2022-11-19T08:07:30.639Z,3.90
2022-11-19T08:08:30.585Z,4.02
2022-11-19T08:09:30.532Z,4.02
2022-11-19T08:10:31.963Z,4.13
2022-11-19T08:11:30.434Z,4.11
2022-11-19T08:12:30.393Z,3.99
2022-11-19T08:13:30.344Z,4.07
2022-11-19T08:14:30.312Z,4.18
2022-11-19T08:15:30.255Z,4.31
2022-11-19T08:16:30.229Z,4.31
2022-11-19T08:17:30.169Z,4.38
2022-11-19T08:18:31.501Z,4.49
2022-11-19T08:19:30.075Z,4.47
2022-11-19T08:20:30.037Z,4.50
2022-11-19T08:21:29.988Z,4.38
2022-11-19T08:22:29.959Z,4.35
2022-11-19T08:23:29.901Z,4.26
2022-11-19T08:24:29.856Z,4.25
2022-11-19T08:25:29.810Z,4.29
2022-11-19T08:26:29.765Z,4.25
2022-11-19T08:27:29.722Z,4.16
2022-11-19T08:28:29.690Z,4.10
2022-11-19T08:29:29.632Z,4.17
2022-11-19T08:30:29.588Z,4.04
2022-11-19T08:31:29.559Z,4.06
2022-11-19T08:32:29.501Z,4.04
2022-11-19T08:33:29.455Z,3.98
2022-11-19T08:34:29.412Z,3.95
2022-11-19T08:35:29.369Z,4.16
2022-11-19T08:36:29.334Z,3.98
2022-11-19T08:37:29.278Z,4.04
2022-11-19T08:38:29.232Z,4.10
2022-11-19T08:39:29.209Z,4.11
2022-11-19T08:40:29.144Z,4.17
2022-11-19T08:41:29.100Z,4.16
2022-11-19T08:42:29.054Z,4.26
2022-11-19T08:43:29.028Z,4.21
2022-11-19T08:44:28.965Z,4.20
2022-11-19T08:45:28.923Z,4.24
2022-11-19T08:46:28.875Z,4.26
2022-11-19T08:47:28.837Z,4.31
2022-11-19T08:48:28.787Z,4.31
2022-11-19T08:49:28.766Z,4.24
2022-11-19T08:50:28.703Z,4.26
2022-11-19T08:51:28.661Z,4.35
2022-11-19T08:52:28.609Z,4.32
2022-11-19T08:53:28.568Z,4.29
2022-11-19T08:54:28.521Z,4.38
2022-11-19T08:55:28.492Z,4.32
2022-11-19T08:56:28.446Z,4.31
2022-11-19T08:57:28.392Z,4.42
2022-11-19T08:58:28.353Z,4.29
2022-11-19T08:59:28.303Z,4.35
2022-11-19T09:00:28.317Z,4.36
2022-11-19T09:01:28.293Z,4.26
2022-11-19T09:02:28.170Z,4.31
2022-11-19T09:03:28.126Z,4.28
2022-11-19T09:04:28.080Z,4.42
2022-11-19T09:05:28.040Z,4.42
2022-11-19T09:06:28.002Z,4.32
2022-11-19T09:07:28.014Z,4.31
2022-11-19T09:08:27.902Z,4.42
2022-11-19T09:09:27.860Z,4.35
2022-11-19T09:10:27.814Z,4.43
2022-11-19T09:11:27.776Z,4.34
2022-11-19T09:12:27.740Z,4.42
2022-11-19T09:13:27.685Z,4.38
2022-11-19T09:14:27.643Z,4.34
2022-11-19T09:15:27.600Z,4.38
2022-11-19T09:16:27.557Z,4.43
2022-11-19T09:17:27.509Z,4.43
2022-11-19T09:18:27.476Z,4.44
2022-11-19T09:19:27.419Z,4.38
2022-11-19T09:20:27.378Z,4.47
2022-11-19T09:21:27.331Z,4.44
2022-11-19T09:22:27.285Z,4.44
2022-11-19T09:23:27.264Z,4.56
2022-11-19T09:24:27.198Z,4.49
2022-11-19T09:25:27.158Z,4.44
2022-11-19T09:26:27.110Z,4.35
2022-11-19T09:27:27.076Z,4.46
2022-11-19T09:28:27.022Z,4.49
2022-11-19T09:29:26.994Z,4.51
2022-11-19T09:30:26.945Z,4.43
2022-11-19T09:31:26.904Z,4.53
2022-11-19T09:32:26.845Z,4.54
2022-11-19T09:33:26.805Z,4.51
2022-11-19T09:34:26.777Z,4.49
2022-11-19T09:35:26.717Z,4.44
2022-11-19T09:36:26.670Z,4.50
2022-11-19T09:37:26.631Z,4.38
2022-11-19T09:38:26.580Z,4.38
2022-11-19T09:39:26.542Z,4.39
2022-11-19T09:40:26.504Z,4.47
2022-11-19T09:41:26.462Z,4.39
2022-11-19T09:42:26.423Z,4.43
2022-11-19T09:43:26.367Z,4.39
2022-11-19T09:44:26.319Z,4.49
2022-11-19T09:45:26.279Z,4.43
2022-11-19T09:46:26.230Z,4.53
2022-11-19T09:47:26.207Z,4.44
2022-11-19T09:48:26.156Z,4.44
2022-11-19T09:49:26.100Z,4.50
2022-11-19T09:50:26.065Z,4.47
2022-11-19T09:51:26.013Z,4.43
2022-11-19T09:52:25.980Z,4.44
2022-11-19T09:53:25.924Z,4.49
2022-11-19T09:54:25.878Z,4.54
2022-11-19T09:55:25.839Z,4.59
2022-11-19T09:56:25.803Z,4.57
2022-11-19T09:57:26.617Z,4.67
2022-11-19T09:58:25.740Z,4.57
2022-11-19T09:59:25.661Z,4.46
2022-11-19T10:00:25.616Z,4.59
2022-11-19T10:01:25.597Z,4.69
2022-11-19T10:02:25.530Z,4.64
2022-11-19T10:03:29.996Z,4.68
2022-11-19T10:04:25.441Z,4.68
2022-11-19T10:05:25.394Z,4.61
2022-11-19T10:06:25.353Z,4.53
2022-11-19T10:07:25.377Z,4.57
2022-11-19T10:08:25.268Z,4.57
2022-11-19T10:09:25.232Z,4.50
2022-11-19T10:10:25.179Z,4.49
2022-11-19T10:11:25.153Z,4.46
2022-11-19T10:12:25.089Z,4.50
2022-11-19T10:13:25.667Z,4.53
2022-11-19T10:14:25.004Z,4.51
2022-11-19T10:15:24.963Z,4.38
2022-11-19T10:16:24.917Z,4.43
2022-11-19T10:17:24.887Z,4.57
2022-11-19T10:18:24.828Z,4.74
2022-11-19T10:19:24.899Z,4.65
2022-11-19T10:20:25.665Z,4.62
2022-11-19T10:21:24.700Z,4.68
2022-11-19T10:22:24.667Z,4.65
2022-11-19T10:23:24.613Z,4.62
2022-11-19T10:24:24.562Z,4.64
2022-11-19T10:25:24.525Z,4.57
2022-11-19T10:26:24.481Z,4.71
2022-11-19T10:27:24.455Z,4.87
2022-11-19T10:28:24.394Z,4.80
2022-11-19T10:29:24.355Z,4.77
2022-11-19T10:30:24.304Z,4.74
2022-11-19T10:31:24.284Z,4.75
2022-11-19T10:32:24.565Z,4.75
2022-11-19T10:33:24.189Z,4.79
2022-11-19T10:34:24.377Z,4.88
2022-11-19T10:35:24.094Z,4.90
2022-11-19T10:36:24.046Z,4.90
2022-11-19T10:37:24.004Z,4.94
2022-11-19T10:38:23.969Z,4.86
2022-11-19T10:39:23.917Z,4.90
2022-11-19T10:40:23.868Z,4.83
2022-11-19T10:41:23.833Z,4.77
2022-11-19T10:42:23.785Z,4.84
2022-11-19T10:43:23.854Z,4.71
2022-11-19T10:44:23.696Z,4.91
2022-11-19T10:45:23.657Z,4.97
2022-11-19T10:46:23.609Z,4.94
2022-11-19T10:47:23.573Z,5.02
2022-11-19T10:48:25.193Z,5.14
2022-11-19T10:49:24.145Z,4.86
2022-11-19T10:50:23.440Z,4.87
2022-11-19T10:51:23.397Z,4.88
2022-11-19T10:52:23.351Z,4.96
2022-11-19T10:53:23.322Z,4.87
2022-11-19T10:54:23.580Z,4.96
2022-11-19T10:55:23.225Z,4.97
2022-11-19T10:56:23.183Z,4.97
2022-11-19T10:57:23.142Z,4.93
2022-11-19T10:58:23.104Z,4.91
2022-11-19T10:59:23.325Z,4.91
2022-11-19T11:00:23.018Z,4.99
2022-11-19T11:01:22.997Z,4.87
2022-11-19T11:02:27.701Z,4.68
2022-11-19T11:03:22.891Z,4.86
2022-11-19T11:04:22.833Z,4.80
2022-11-19T11:05:22.794Z,4.83
2022-11-19T11:06:22.748Z,4.75
2022-11-19T11:07:22.764Z,4.96
2022-11-19T11:08:22.661Z,4.94
2022-11-19T11:09:22.703Z,4.88
2022-11-19T11:10:22.576Z,4.88
2022-11-19T11:11:22.538Z,4.88
2022-11-19T11:12:22.491Z,4.91
2022-11-19T11:13:22.449Z,4.99
2022-11-19T11:14:22.416Z,4.94
2022-11-19T11:15:22.366Z,4.90
2022-11-19T11:16:22.332Z,4.94
2022-11-19T11:17:22.283Z,4.97
2022-11-19T11:18:22.240Z,4.99
2022-11-19T11:19:22.519Z,5.02
2022-11-19T11:20:22.170Z,5.12
2022-11-19T11:21:22.106Z,5.01
2022-11-19T11:22:22.065Z,4.96
2022-11-19T11:23:22.021Z,4.67
2022-11-19T11:24:21.975Z,4.61
2022-11-19T11:25:21.932Z,4.71
2022-11-19T11:26:21.904Z,4.54
2022-11-19T11:27:21.855Z,4.64
2022-11-19T11:28:21.803Z,4.64
2022-11-19T11:29:21.954Z,4.67
2022-11-19T11:30:21.717Z,4.64
2022-11-19T11:31:21.690Z,4.69
2022-11-19T11:32:21.634Z,4.84
2022-11-19T11:33:21.591Z,4.75
2022-11-19T11:34:21.544Z,4.79
2022-11-19T11:35:21.508Z,4.61
2022-11-19T11:36:21.472Z,4.43
2022-11-19T11:37:21.419Z,4.32
2022-11-19T11:38:21.372Z,4.32
2022-11-19T11:39:21.583Z,4.24
2022-11-19T11:40:21.285Z,4.17
2022-11-19T11:42:21.291Z,4.18
2022-11-19T11:43:21.163Z,4.17
2022-11-19T11:44:21.111Z,4.32
2022-11-19T11:45:21.072Z,4.29
2022-11-19T11:46:21.039Z,4.43
2022-11-19T11:47:20.989Z,4.49
2022-11-19T11:48:20.938Z,4.53
2022-11-19T11:49:21.056Z,4.51
2022-11-19T11:50:20.851Z,4.50
2022-11-19T11:51:20.814Z,4.39
2022-11-19T11:52:20.776Z,4.42
2022-11-19T11:53:20.721Z,4.32
2022-11-19T11:54:20.679Z,4.36
2022-11-19T11:55:20.636Z,4.39
2022-11-19T11:56:20.612Z,4.46
2022-11-19T11:57:20.548Z,4.31
2022-11-19T11:58:20.517Z,4.49
2022-11-19T11:59:20.789Z,4.62
2022-11-19T12:00:20.420Z,4.43
2022-11-19T12:01:20.383Z,4.51
2022-11-19T12:02:20.358Z,4.53
2022-11-19T12:03:20.294Z,4.65
2022-11-19T12:04:20.256Z,4.71
2022-11-19T12:05:20.207Z,4.62
2022-11-19T12:06:20.154Z,4.49
2022-11-19T12:07:20.171Z,4.53
2022-11-19T12:08:25.584Z,4.46
2022-11-19T12:09:20.302Z,4.54
2022-11-19T12:10:19.988Z,4.54
2022-11-19T12:11:19.947Z,4.71
2022-11-19T12:12:19.892Z,4.80
2022-11-19T12:13:19.853Z,4.77
2022-11-19T12:14:19.805Z,4.97
2022-11-19T12:15:19.780Z,5.02
2022-11-19T12:16:19.716Z,5.04
2022-11-19T12:17:19.678Z,4.97
2022-11-19T12:18:19.632Z,4.83
2022-11-19T12:19:19.720Z,4.86
2022-11-19T12:20:19.543Z,4.86
2022-11-19T12:21:19.518Z,4.87
2022-11-19T12:22:19.459Z,4.65
2022-11-19T12:23:19.417Z,4.77
2022-11-19T12:24:19.397Z,4.83
2022-11-19T12:25:19.371Z,4.75
2022-11-19T12:26:19.282Z,4.91
2022-11-19T12:27:19.287Z,4.93
2022-11-19T12:28:19.197Z,4.96
2022-11-19T12:29:19.501Z,4.96
2022-11-19T12:30:19.110Z,4.91
2022-11-19T12:31:19.087Z,5.11
2022-11-19T12:32:19.034Z,5.24
2022-11-19T12:33:19.000Z,5.29
2022-11-19T12:34:18.936Z,5.41
2022-11-19T12:35:18.920Z,5.40
2022-11-19T12:36:18.863Z,5.41
2022-11-19T12:37:18.811Z,5.27
2022-11-19T12:38:18.767Z,5.29
2022-11-19T12:39:18.934Z,5.19
2022-11-19T12:40:18.697Z,5.27
2022-11-19T12:41:18.640Z,5.40
2022-11-19T12:42:18.599Z,5.29
2022-11-19T12:43:18.554Z,5.47
2022-11-19T12:44:18.527Z,5.48
2022-11-19T12:45:18.463Z,5.47
2022-11-19T12:46:18.436Z,5.49
2022-11-19T12:47:18.385Z,5.51
2022-11-19T12:48:18.341Z,5.63
2022-11-19T12:49:18.692Z,5.56
2022-11-19T12:50:18.253Z,5.48
2022-11-19T12:51:18.205Z,5.63
2022-11-19T12:52:18.180Z,5.60
2022-11-19T12:53:18.122Z,5.52
2022-11-19T12:54:23.178Z,5.40
2022-11-19T12:55:18.039Z,5.38
2022-11-19T12:56:18.010Z,5.32
2022-11-19T12:57:17.952Z,5.19
2022-11-19T12:58:17.922Z,5.32
2022-11-19T12:59:18.199Z,5.26
2022-11-19T13:00:17.824Z,5.35
2022-11-19T13:01:17.834Z,5.40
2022-11-19T13:02:17.744Z,5.41
2022-11-19T13:03:17.717Z,5.45
2022-11-19T13:04:17.662Z,5.40
2022-11-19T13:05:25.223Z,5.40
2022-11-19T13:06:18.144Z,5.24
2022-11-19T13:07:17.560Z,5.23
2022-11-19T13:08:17.490Z,5.15
2022-11-19T13:09:17.692Z,5.11
2022-11-19T13:10:17.404Z,5.17
2022-11-19T13:11:17.356Z,5.20
2022-11-19T13:12:17.314Z,5.11
2022-11-19T13:13:17.266Z,5.11
2022-11-19T13:14:17.240Z,5.02
2022-11-19T13:15:17.193Z,5.05
2022-11-19T13:16:17.141Z,5.04
2022-11-19T13:17:17.099Z,5.12
2022-11-19T13:18:17.055Z,5.09
2022-11-19T13:19:17.126Z,5.11